Depesze METAR lotnisk w Polsce

METAR – format kodowanego raportu o pogodzie używany w meteorologii lotniczej i prognozie pogody. METAR jest akronimem od ang. Meteorological Aerodrome Report. Typowy METAR zawiera informację o temperaturze, ciśnieniu, temperaturze punktu rosy, sile i kierunku wiatru, opadzie, pokrywie chmur, wysokości podstawy chmur, widzialności, lecz może zawierać też inne informacje (np. stan dróg startowych).

Warszawa-Okęcie (EPWA)

METAR = EPWA 100230Z 27009KT 240V300 9999 BKN013 07/06 Q1017 NOSIG

STACJA......... EPWA - Warszawa-Okęcie (WAW)
POMIAR......... Sat Dec 10, 03:30 CET
WIATR.......... zachodni (W) z prędkością 17 km/h
WIDZIALNOŚĆ.... powyżej 10 kilometrów
CHMURY......... zachmurzenie średnie (5/8-7/8)
TEMPERATURA.... 7°C
T.PUNKTU ROSY.. 6°C
WILGOTNOŚĆ..... 93%
T.ODCZUWALNA... 4°C
CIŚNIENIE...... 1017 hPa
PROGNOZA....... bez nagłych zmian w ciągu 2h

Sprawdź też: Prognoza pogody Warszawa

Warszawa-Modlin (EPMO)

METAR = EPMO 100230Z 27012KT 9999 OVC012 07/05 Q1017 =

STACJA......... EPMO - Warszawa-Modlin (WMI)
POMIAR......... Sat Dec 10, 03:30 CET
WIATR.......... zachodni (W) z prędkością 22 km/h
WIDZIALNOŚĆ.... powyżej 10 kilometrów
CHMURY......... zachmurzenie całkowite (8/8)
TEMPERATURA.... 7°C
T.PUNKTU ROSY.. 5°C
WILGOTNOŚĆ..... 87%
T.ODCZUWALNA... 4°C
CIŚNIENIE...... 1017 hPa

Sprawdź też: Prognoza pogody Nowy Dwór Mazowiecki

Kraków-Balice (EPKK)

METAR = EPKK 100230Z 25012KT 9999 FEW010 BKN025 06/04 Q1022

STACJA......... EPKK - Kraków-Balice (KRK)
POMIAR......... Sat Dec 10, 03:30 CET
WIATR.......... zachodni południowo-zachodni (WSW) z prędkością 22 km/h
WIDZIALNOŚĆ.... powyżej 10 kilometrów
CHMURY......... zachmurzenie średnie (5/8-7/8)
TEMPERATURA.... 6°C
T.PUNKTU ROSY.. 4°C
WILGOTNOŚĆ..... 87%
T.ODCZUWALNA... 2°C
CIŚNIENIE...... 1022 hPa

Sprawdź też: Prognoza pogody Kraków

Łódź-Lublinek (EPLL)

METAR = EPLL 100230Z 24012KT 9999 SCT009 OVC011 07/05 Q1019

STACJA......... EPLL - Łódź-Lublinek (LCJ)
POMIAR......... Sat Dec 10, 03:30 CET
WIATR.......... zachodni południowo-zachodni (WSW) z prędkością 22 km/h
WIDZIALNOŚĆ.... powyżej 10 kilometrów
CHMURY......... zachmurzenie całkowite (8/8)
TEMPERATURA.... 7°C
T.PUNKTU ROSY.. 5°C
WILGOTNOŚĆ..... 87%
T.ODCZUWALNA... 4°C
CIŚNIENIE...... 1019 hPa

Sprawdź też: Prognoza pogody Łódź

Wrocław-Strachowice (EPWR)

METAR = EPWR 100230Z 26007KT 9999 FEW008 BKN015 08/05 Q1022

STACJA......... EPWR - Wrocław-Strachowice (WRO)
POMIAR......... Sat Dec 10, 03:30 CET
WIATR.......... zachodni (W) z prędkością 13 km/h
WIDZIALNOŚĆ.... powyżej 10 kilometrów
CHMURY......... zachmurzenie średnie (5/8-7/8)
TEMPERATURA.... 8°C
T.PUNKTU ROSY.. 5°C
WILGOTNOŚĆ..... 82%
T.ODCZUWALNA... 6°C
CIŚNIENIE...... 1022 hPa

Sprawdź też: Prognoza pogody Wrocław

Katowice-Pyrzowice (EPKT)

METAR = EPKT 100230Z 21008KT 5000 BR FEW010 BKN014 04/03 Q1022

STACJA......... EPKT - Katowice-Pyrzowice (KTW)
POMIAR......... Sat Dec 10, 03:30 CET
WIATR.......... południowo południowo-zachodni  (SSW) z prędkością 15 km/h
WIDZIALNOŚĆ.... 5000 metrów
WARUNKI........ zamglenie 
CHMURY......... zachmurzenie średnie (5/8-7/8)
TEMPERATURA.... 4°C
T.PUNKTU ROSY.. 3°C
WILGOTNOŚĆ..... 93%
T.ODCZUWALNA... 1°C
CIŚNIENIE...... 1022 hPa

Sprawdź też: Prognoza pogody Katowice

Gdańsk (EPGD)

METAR = EPGD 100230Z 26009KT 9999 -RA OVC006 07/06 Q1013

STACJA......... EPGD - Gdańsk im. Lecha Wałęsy (GDN)
POMIAR......... Sat Dec 10, 03:30 CET
WIATR.......... zachodni (W) z prędkością 17 km/h
WIDZIALNOŚĆ.... powyżej 10 kilometrów
WARUNKI........ słaby: deszcz 
CHMURY......... zachmurzenie całkowite (8/8)
TEMPERATURA.... 7°C
T.PUNKTU ROSY.. 6°C
WILGOTNOŚĆ..... 93%
T.ODCZUWALNA... 4°C
CIŚNIENIE...... 1013 hPa

Sprawdź też: Prognoza pogody Gdańsk

Poznań-Ławica (EPPO)

METAR = EPPO 100230Z 24011KT 5000 BR OVC004 08/07 Q1018

STACJA......... EPPO - Poznań-Ławica (POZ)
POMIAR......... Sat Dec 10, 03:30 CET
WIATR.......... zachodni południowo-zachodni (WSW) z prędkością 20 km/h
WIDZIALNOŚĆ.... 5000 metrów
WARUNKI........ zamglenie 
CHMURY......... zachmurzenie całkowite (8/8)
TEMPERATURA.... 8°C
T.PUNKTU ROSY.. 7°C
WILGOTNOŚĆ..... 93%
T.ODCZUWALNA... 4°C
CIŚNIENIE...... 1018 hPa

Sprawdź też: Prognoza pogody Poznań

Rzeszów-Jasionka (EPRZ)

METAR = EPRZ 100230Z 26013KT 9999 OVC013 06/04 Q1020 R27/19//95

STACJA......... EPRZ - Rzeszów-Jasionka (RZE)
POMIAR......... Sat Dec 10, 03:30 CET
WIATR.......... zachodni (W) z prędkością 24 km/h
WIDZIALNOŚĆ.... powyżej 10 kilometrów
CHMURY......... zachmurzenie całkowite (8/8)
TEMPERATURA.... 6°C
T.PUNKTU ROSY.. 4°C
WILGOTNOŚĆ..... 87%
T.ODCZUWALNA... 2°C
CIŚNIENIE...... 1020 hPa
PAS STARTOWY... pas nr 27: wilgotny na 51-100% pasa, dobra przyczepność hamowania

Sprawdź też: Prognoza pogody Rzeszów

Szczecin-Goleniów (EPSC)

METAR = EPSC 100230Z 25010KT 5000 -RA BR BKN003 OVC004 09/08 Q1017

STACJA......... EPSC - Szczecin-Goleniów (SZZ)
POMIAR......... Sat Dec 10, 03:30 CET
WIATR.......... zachodni południowo-zachodni (WSW) z prędkością 19 km/h
WIDZIALNOŚĆ.... 5000 metrów
WARUNKI........ słaby: deszcz  & zamglenie 
CHMURY......... zachmurzenie całkowite (8/8)
TEMPERATURA.... 9°C
T.PUNKTU ROSY.. 8°C
WILGOTNOŚĆ..... 94%
T.ODCZUWALNA... 6°C
CIŚNIENIE...... 1017 hPa

Sprawdź też: Prognoza pogody Szczecin

Lublin-Świdnik (EPLB)

METAR = EPLB 100230Z 27011KT 3000 -DZ BR BKN007 OVC012 06/06 Q1018 =

STACJA......... EPLB - Lublin-Świdnik (LUZ)
POMIAR......... Sat Dec 10, 03:30 CET
WIATR.......... zachodni (W) z prędkością 20 km/h
WIDZIALNOŚĆ.... 3000 metrów
WARUNKI........ słaby: mżawka  & zamglenie 
CHMURY......... zachmurzenie całkowite (8/8)
TEMPERATURA.... 6°C
T.PUNKTU ROSY.. 6°C
WILGOTNOŚĆ..... 100%
T.ODCZUWALNA... 2°C
CIŚNIENIE...... 1018 hPa

Sprawdź też: Prognoza pogody Lublin

Bydgoszcz-Szwederowo (EPBY)

METAR = EPBY 100230Z 25010KT 6000 -RA SCT003 OVC005 07/07 Q1016 =

STACJA......... EPBY - Bydgoszcz-Szwederowo (BZG)
POMIAR......... Sat Dec 10, 03:30 CET
WIATR.......... zachodni południowo-zachodni (WSW) z prędkością 19 km/h
WIDZIALNOŚĆ.... 6000 metrów
WARUNKI........ słaby: deszcz 
CHMURY......... zachmurzenie całkowite (8/8)
TEMPERATURA.... 7°C
T.PUNKTU ROSY.. 7°C
WILGOTNOŚĆ..... 100%
T.ODCZUWALNA... 4°C
CIŚNIENIE...... 1016 hPa

Sprawdź też: Prognoza pogody Bydgoszcz

Zielona Góra-Babimost (EPZG)

METAR = EPZG 100230Z NIL=

STACJA......... EPZG - Zielona Góra-Babimost (IEG)
POMIAR......... Sat Dec 10, 03:30 CET
DEPESZA........ brak aktualnej prognozy w treści depeszy

Sprawdź też: Prognoza pogody Zielona Góra

Szymany Olsztyn-Mazury (EPSY)

METAR = EPSY 100230Z NIL=

STACJA......... EPSY - Olsztyn-Mazury (SZY)
POMIAR......... Sat Dec 10, 03:30 CET
DEPESZA........ brak aktualnej prognozy w treści depeszy

Sprawdź też: Prognoza pogody Olsztyn